Time;durP1;ratioP1;P1;durP2;ratioP2;P2;SDS_P1;SDS_P2;PMS_P1;PMS_P2;Temp;Humidity;BMP_temperature;BMP_pressure;BME280_temperature;BME280_humidity;BME280_pressure;Samples;Min_cycle;Max_cycle;Signal;HPM_P1;HPM_P2
2021/04/15 00:02:30;;;;;;;16.35;10.13;;;-0.60;99.90;;;;;;20754110;28;20351;-46
2021/04/15 00:12:47;;;;;;;16.52;10.35;;;-0.40;99.90;;;;;;20753568;28;20064;-43
2021/04/15 00:22:49;;;;;;;14.77;9.35;;;-0.30;99.90;;;;;;20753926;28;20096;-44
2021/04/15 00:32:51;;;;;;;14.27;9.07;;;-0.30;99.90;;;;;;20781192;28;20037;-43
2021/04/15 00:42:52;;;;;;;12.70;7.78;;;-0.20;99.90;;;;;;20833349;28;20053;-44
2021/04/15 00:52:57;;;;;;;12.23;5.65;;;-0.30;99.90;;;;;;20831750;28;20045;-43
2021/04/15 01:03:01;;;;;;;10.00;5.85;;;-0.60;99.90;;;;;;20753852;28;20116;-43
2021/04/15 01:13:28;;;;;;;8.88;4.35;;;-0.60;99.90;;;;;;20747190;28;20072;-43
2021/04/15 01:24:23;;;;;;;5.28;2.92;;;-0.50;99.90;;;;;;20748011;28;20404;-47
2021/04/15 01:34:40;;;;;;;7.78;2.97;;;-0.50;99.90;;;;;;20726088;28;20100;-44
2021/04/15 01:44:47;;;;;;;6.72;2.78;;;-0.30;99.90;;;;;;20746308;28;20108;-44
2021/04/15 01:55:03;;;;;;;5.40;2.47;;;-0.10;98.50;;;;;;20767896;28;20103;-43
2021/04/15 02:05:21;;;;;;;4.68;2.10;;;-0.10;99.90;;;;;;20826764;28;20091;-43
2021/04/15 02:15:29;;;;;;;4.75;2.20;;;-0.30;98.80;;;;;;20825775;28;20494;-44
2021/04/15 02:25:47;;;;;;;4.85;2.20;;;-0.30;97.10;;;;;;20824982;28;20548;-45
2021/04/15 02:35:52;;;;;;;3.75;2.28;;;-0.60;99.30;;;;;;20824189;28;20037;-44
2021/04/15 02:45:56;;;;;;;4.82;2.25;;;-0.70;97.30;;;;;;20824070;28;20403;-43
2021/04/15 02:56:24;;;;;;;4.78;2.28;;;-0.70;99.90;;;;;;20823586;28;20099;-44
2021/04/15 03:06:32;;;;;;;4.78;2.47;;;-0.70;99.10;;;;;;20822817;28;20535;-43
2021/04/15 03:16:42;;;;;;;5.60;2.10;;;-0.60;96.80;;;;;;20825004;28;20387;-45
2021/04/15 03:26:54;;;;;;;4.47;2.47;;;-0.50;97.90;;;;;;20839134;28;20091;-43
2021/04/15 03:36:58;;;;;;;5.20;2.80;;;-0.40;97.20;;;;;;20780026;28;20045;-43
2021/04/15 03:47:05;;;;;;;4.85;2.10;;;-0.40;97.10;;;;;;20754031;28;20404;-43
2021/04/15 03:57:16;;;;;;;4.00;1.98;;;-0.40;99.80;;;;;;20754879;28;20057;-43
2021/04/15 04:07:34;;;;;;;4.47;2.17;;;-0.60;98.90;;;;;;20754047;28;20041;-47
2021/04/15 04:17:50;;;;;;;3.75;2.20;;;-0.60;99.60;;;;;;20753125;28;20072;-43
2021/04/15 04:27:58;;;;;;;4.20;2.30;;;-0.70;99.90;;;;;;20751539;28;20376;-43
2021/04/15 04:38:07;;;;;;;4.60;2.08;;;-0.80;99.60;;;;;;20823079;28;20107;-45
2021/04/15 04:48:21;;;;;;;2.97;1.80;;;-0.70;99.90;;;;;;20833167;28;20046;-43
2021/04/15 04:58:24;;;;;;;6.35;1.90;;;-0.80;99.90;;;;;;20823794;28;20068;-45
2021/04/15 05:08:28;;;;;;;4.63;2.03;;;-0.70;99.90;;;;;;20750250;28;20526;-44
2021/04/15 05:18:30;;;;;;;5.10;2.08;;;-0.70;99.90;;;;;;20748556;28;20475;-43
2021/04/15 05:28:35;;;;;;;4.40;1.60;;;-0.50;99.90;;;;;;20747562;28;20091;-43
2021/04/15 05:38:45;;;;;;;2.50;1.60;;;0.00;99.20;;;;;;20754130;28;20046;-46
2021/04/15 05:48:53;;;;;;;3.30;1.67;;;0.30;99.90;;;;;;20745966;28;20480;-43
2021/04/15 05:59:32;;;;;;;5.05;1.98;;;0.60;99.90;;;;;;20801645;28;20041;-42
2021/04/15 06:09:34;;;;;;;3.92;2.28;;;0.40;99.30;;;;;;20804703;28;20053;-43
2021/04/15 06:19:38;;;;;;;3.58;2.05;;;-0.10;99.90;;;;;;20825406;28;20102;-42
2021/04/15 06:30:02;;;;;;;3.33;1.75;;;0.20;99.90;;;;;;20824693;28;20045;-45
2021/04/15 06:40:06;;;;;;;3.38;1.85;;;0.70;99.90;;;;;;20822753;28;20099;-43
2021/04/15 06:50:46;;;;;;;3.17;1.73;;;1.50;99.90;;;;;;20823188;28;20122;-43
2021/04/15 07:01:00;;;;;;;2.72;2.10;;;2.80;98.60;;;;;;20823300;28;20487;-43
2021/04/15 07:11:31;;;;;;;3.33;1.77;;;3.50;96.60;;;;;;20823135;28;20364;-45
2021/04/15 07:21:54;;;;;;;2.40;1.90;;;3.40;95.50;;;;;;20822186;28;20091;-43
2021/04/15 07:32:20;;;;;;;4.03;2.38;;;4.30;95.70;;;;;;20806115;28;20433;-43
2021/04/15 07:42:47;;;;;;;2.80;1.98;;;5.30;93.80;;;;;;20740362;28;20472;-48
2021/04/15 07:53:26;;;;;;;3.72;2.58;;;6.60;90.30;;;;;;20740136;28;20462;-44
2021/04/15 08:03:54;;;;;;;5.13;3.30;;;8.20;90.60;;;;;;20741350;28;20060;-44
2021/04/15 08:14:23;;;;;;;3.55;2.70;;;8.50;85.80;;;;;;20753853;28;20057;-44
2021/04/15 08:25:00;;;;;;;4.07;2.65;;;8.60;82.60;;;;;;20753151;28;20096;-44
2021/04/15 08:35:27;;;;;;;4.28;3.20;;;9.10;78.00;;;;;;20799225;28;20544;-44
2021/04/15 08:45:41;;;;;;;4.90;2.53;;;8.70;81.80;;;;;;20833819;28;20179;-44
2021/04/15 08:55:48;;;;;;;5.13;3.13;;;9.10;82.30;;;;;;20832773;28;20041;-43
2021/04/15 09:06:12;;;;;;;6.07;2.80;;;7.60;77.50;;;;;;20832048;28;20037;-44
2021/04/15 09:16:32;;;;;;;6.13;4.00;;;7.10;84.50;;;;;;20830546;28;20033;-44
2021/04/15 09:26:58;;;;;;;5.07;4.03;;;7.90;87.40;;;;;;20829790;28;20440;-44
2021/04/15 09:37:39;;;;;;;3.83;3.00;;;8.40;89.70;;;;;;20829723;28;20045;-44
2021/04/15 09:48:07;;;;;;;5.80;3.35;;;9.10;77.80;;;;;;20828341;28;20053;-43
2021/04/15 09:58:31;;;;;;;5.78;3.17;;;8.80;84.00;;;;;;20826846;28;20049;-45
2021/04/15 10:08:41;;;;;;;5.30;3.10;;;7.90;87.50;;;;;;20826658;28;20099;-43
2021/04/15 10:19:07;;;;;;;5.13;3.47;;;7.40;86.30;;;;;;20825621;28;20033;-43
2021/04/15 10:29:49;;;;;;;5.80;3.53;;;6.30;91.50;;;;;;20823196;28;20033;-43
2021/04/15 10:40:29;;;;;;;6.32;3.63;;;5.00;95.30;;;;;;20819767;28;20050;-45
2021/04/15 10:50:55;;;;;;;7.22;3.95;;;3.90;99.90;;;;;;20823240;28;20084;-42
2021/04/15 11:01:18;;;;;;;4.35;3.28;;;2.80;99.90;;;;;;20823541;28;20041;-43
2021/04/15 11:11:27;;;;;;;4.78;3.33;;;1.70;99.90;;;;;;20822980;28;20097;-45
2021/04/15 11:21:34;;;;;;;3.72;3.08;;;1.40;99.90;;;;;;20822751;28;20487;-42
2021/04/15 11:31:40;;;;;;;3.90;2.67;;;1.20;99.90;;;;;;20807491;28;20061;-43
2021/04/15 11:42:02;;;;;;;5.20;2.95;;;1.60;99.90;;;;;;20748899;28;20404;-44
2021/04/15 11:52:16;;;;;;;3.58;2.53;;;1.60;99.90;;;;;;20755379;28;20096;-44
2021/04/15 12:02:28;;;;;;;3.63;2.60;;;1.80;99.90;;;;;;20754516;28;20057;-46
2021/04/15 12:12:47;;;;;;;2.47;2.08;;;3.60;99.90;;;;;;20753904;28;20431;-42
2021/04/15 12:23:01;;;;;;;3.42;1.90;;;5.10;99.90;;;;;;20753281;28;20064;-44
2021/04/15 12:33:09;;;;;;;2.33;1.20;;;6.30;96.40;;;;;;20783843;28;20099;-45
2021/04/15 12:43:29;;;;;;;1.95;1.45;;;8.90;87.10;;;;;;20833877;28;20132;-44
2021/04/15 12:53:37;;;;;;;3.08;1.67;;;9.90;74.60;;;;;;20831353;28;20049;-45
2021/04/15 13:03:42;;;;;;;3.30;1.35;;;9.90;77.60;;;;;;20831805;28;20033;-45
2021/04/15 13:13:48;;;;;;;2.25;1.30;;;9.60;81.10;;;;;;20831050;28;20088;-45
2021/04/15 13:23:50;;;;;;;2.42;1.50;;;10.20;76.90;;;;;;20829238;28;20037;-48
2021/04/15 13:34:05;;;;;;;2.80;1.70;;;8.50;83.40;;;;;;20796759;28;20041;-45
2021/04/15 13:44:32;;;;;;;3.80;1.77;;;7.60;83.70;;;;;;20828447;28;20088;-48
2021/04/15 13:54:47;;;;;;;2.15;1.65;;;7.00;83.20;;;;;;20827207;28;20034;-46
2021/04/15 14:04:56;;;;;;;2.47;1.92;;;6.00;92.40;;;;;;20825807;28;20037;-45
2021/04/15 14:14:58;;;;;;;3.10;2.17;;;5.60;97.30;;;;;;20825765;28;20034;-45
2021/04/15 14:25:27;;;;;;;3.00;2.08;;;5.60;94.60;;;;;;20825572;28;20034;-45
2021/04/15 14:35:30;;;;;;;4.03;2.30;;;5.20;99.20;;;;;;20824473;28;20042;-44
2021/04/15 14:45:35;;;;;;;4.85;2.60;;;4.30;99.90;;;;;;20823976;28;20053;-44
2021/04/15 14:55:37;;;;;;;4.82;3.05;;;3.80;99.90;;;;;;20823570;28;20030;-48
2021/04/15 15:05:43;;;;;;;5.07;2.28;;;3.20;99.90;;;;;;20823329;28;20041;-44
2021/04/15 15:15:47;;;;;;;4.32;2.78;;;3.10;99.90;;;;;;20830583;28;20099;-43
2021/04/15 15:25:52;;;;;;;4.57;2.78;;;3.50;99.90;;;;;;20839560;28;20042;-47
2021/04/15 15:35:58;;;;;;;3.88;2.90;;;3.60;99.90;;;;;;20796830;28;20033;-43
2021/04/15 15:46:01;;;;;;;4.70;3.05;;;3.70;99.90;;;;;;20755929;28;20058;-44
2021/04/15 15:56:23;;;;;;;5.38;3.45;;;3.80;99.90;;;;;;20755255;28;20069;-44
2021/04/15 16:06:25;;;;;;;5.40;3.15;;;3.40;99.90;;;;;;20753410;28;20064;-44
2021/04/15 16:16:27;;;;;;;4.95;3.28;;;2.90;99.90;;;;;;20753896;28;20038;-43
2021/04/15 16:26:29;;;;;;;5.53;3.60;;;2.60;99.90;;;;;;20751688;28;20116;-44
2021/04/15 16:36:32;;;;;;;5.20;3.40;;;2.20;99.90;;;;;;20812345;28;20132;-45
2021/04/15 16:46:34;;;;;;;5.10;3.38;;;1.70;99.90;;;;;;20833850;28;20049;-43
2021/04/15 16:56:41;;;;;;;9.25;5.57;;;1.30;99.90;;;;;;20832575;28;20037;-44
2021/04/15 17:06:44;;;;;;;7.93;4.30;;;1.20;99.90;;;;;;20832496;28;20053;-43
2021/04/15 17:16:46;;;;;;;6.93;4.50;;;1.10;99.90;;;;;;20832706;28;20045;-42
2021/04/15 17:26:48;;;;;;;8.77;5.15;;;0.80;99.90;;;;;;20819305;28;20129;-47
2021/04/15 17:36:51;;;;;;;7.45;4.50;;;0.80;99.90;;;;;;20808798;28;20107;-43
2021/04/15 17:46:56;;;;;;;6.78;4.07;;;0.60;99.90;;;;;;20828218;28;20041;-42
2021/04/15 17:57:01;;;;;;;5.90;3.85;;;0.70;99.90;;;;;;20827562;28;20499;-42
2021/04/15 18:07:03;;;;;;;7.53;4.10;;;0.70;99.90;;;;;;20826446;28;20450;-43
2021/04/15 18:17:05;;;;;;;5.15;3.40;;;0.60;99.90;;;;;;20825853;28;20022;-44
2021/04/15 18:27:09;;;;;;;5.20;3.83;;;0.70;99.90;;;;;;20825475;28;20169;-43
2021/04/15 18:37:12;;;;;;;5.72;4.18;;;0.60;99.90;;;;;;20825346;28;20049;-44
2021/04/15 18:47:15;;;;;;;6.60;3.97;;;0.50;99.90;;;;;;20823254;28;20037;-43
2021/04/15 18:57:17;;;;;;;5.68;3.88;;;0.40;99.90;;;;;;20823495;28;20045;-42
2021/04/15 19:07:19;;;;;;;6.00;4.00;;;0.60;99.90;;;;;;20823706;28;20491;-45
2021/04/15 19:17:22;;;;;;;6.80;4.07;;;0.40;99.90;;;;;;20823709;28;20049;-43
2021/04/15 19:27:24;;;;;;;6.47;3.92;;;0.20;99.90;;;;;;20823594;28;20034;-44
2021/04/15 19:37:26;;;;;;;6.10;3.88;;;-0.10;99.90;;;;;;20768842;28;20385;-43
2021/04/15 19:47:29;;;;;;;8.93;4.38;;;-0.20;99.90;;;;;;20738395;28;20538;-43
2021/04/15 19:57:33;;;;;;;5.53;3.78;;;-0.70;99.90;;;;;;20741700;28;20119;-46
2021/04/15 20:07:34;;;;;;;6.00;3.88;;;-1.00;99.90;;;;;;20755464;28;20045;-44
2021/04/15 20:17:36;;;;;;;5.90;3.50;;;-1.20;99.90;;;;;;20753492;28;20080;-47
2021/04/15 20:27:38;;;;;;;5.55;3.10;;;-1.20;99.90;;;;;;20753113;28;20092;-43
2021/04/15 20:37:42;;;;;;;7.05;3.45;;;-1.10;99.90;;;;;;20821001;28;20495;-43
2021/04/15 20:47:44;;;;;;;5.40;2.70;;;-1.20;99.90;;;;;;20834278;28;20495;-42
2021/04/15 20:57:47;;;;;;;4.53;2.60;;;-1.50;99.90;;;;;;20832629;28;20041;-46
2021/04/15 21:08:05;;;;;;;4.60;3.03;;;-1.70;99.90;;;;;;21146039;27;20351;-42
2021/04/15 21:18:26;;;;;;;5.87;2.93;;;-1.80;99.90;;;;;;21230435;27;20698;-44
2021/04/15 21:28:47;;;;;;;4.20;2.90;;;-2.10;99.90;;;;;;21258283;27;1602310;-43
2021/04/15 21:39:11;;;;;;;5.65;2.78;;;-2.00;99.90;;;;;;21402561;27;20295;-45
2021/04/15 21:49:32;;;;;;;6.03;2.50;;;-1.90;99.90;;;;;;21145888;27;20355;-43
2021/04/15 21:59:53;;;;;;;5.97;2.90;;;-1.60;99.90;;;;;;21145228;27;20048;-43
2021/04/15 22:10:17;;;;;;;5.00;2.87;;;-1.60;99.90;;;;;;21402712;27;20284;-43
2021/04/15 22:20:43;;;;;;;4.75;2.90;;;-1.80;99.90;;;;;;21230310;27;20727;-43
2021/04/15 22:31:04;;;;;;;7.93;3.33;;;-2.20;99.90;;;;;;21061218;28;20359;-43
2021/04/15 22:41:27;;;;;;;7.10;2.50;;;-2.40;99.90;;;;;;21402524;27;20296;-43
2021/04/15 22:51:49;;;;;;;5.22;2.50;;;-2.30;99.90;;;;;;21230553;27;20355;-43
2021/04/15 23:02:14;;;;;;;3.77;2.50;;;-2.10;99.90;;;;;;21146095;27;20348;-42
2021/04/15 23:12:36;;;;;;;6.03;2.90;;;-2.00;99.90;;;;;;21231067;27;20351;-47
2021/04/15 23:22:59;;;;;;;5.10;2.50;;;-2.00;99.90;;;;;;21402589;27;20294;-43
2021/04/15 23:33:23;;;;;;;7.75;3.40;;;-2.20;99.90;;;;;;21230589;27;20112;-47
2021/04/15 23:43:43;;;;;;;4.17;2.60;;;-2.20;99.90;;;;;;21230815;27;20100;-43
2021/04/15 23:53:45;;;;;;;4.25;2.42;;;-2.20;99.90;;;;;;21145335;28;20055;-45
